sensor_id;sensor_type;location;lat;lon;timestamp;temperature;humidity
55211;DHT22;41082;52.822;6.666;2022-08-25T00:01:51;21.70;99.90
55211;DHT22;41082;52.822;6.666;2022-08-25T00:04:18;21.70;99.90
55211;DHT22;41082;52.822;6.666;2022-08-25T00:06:45;21.60;99.90
55211;DHT22;41082;52.822;6.666;2022-08-25T00:09:13;21.60;99.90
55211;DHT22;41082;52.822;6.666;2022-08-25T00:11:39;21.50;99.90
55211;DHT22;41082;52.822;6.666;2022-08-25T00:14:09;21.50;99.90
55211;DHT22;41082;52.822;6.666;2022-08-25T00:16:34;21.40;99.90
55211;DHT22;41082;52.822;6.666;2022-08-25T00:19:07;21.30;99.90
55211;DHT22;41082;52.822;6.666;2022-08-25T00:21:33;21.30;99.90
55211;DHT22;41082;52.822;6.666;2022-08-25T00:24:00;21.30;99.90
55211;DHT22;41082;52.822;6.666;2022-08-25T00:26:27;21.20;99.90
55211;DHT22;41082;52.822;6.666;2022-08-25T00:28:52;21.20;99.90
55211;DHT22;41082;52.822;6.666;2022-08-25T00:31:19;21.20;99.90
55211;DHT22;41082;52.822;6.666;2022-08-25T00:33:46;21.20;99.90
55211;DHT22;41082;52.822;6.666;2022-08-25T00:36:13;21.20;99.90
55211;DHT22;41082;52.822;6.666;2022-08-25T00:38:41;21.20;99.90
55211;DHT22;41082;52.822;6.666;2022-08-25T00:41:09;21.20;99.90
55211;DHT22;41082;52.822;6.666;2022-08-25T00:46:06;21.10;99.90
55211;DHT22;41082;52.822;6.666;2022-08-25T00:48:31;21.10;99.90
55211;DHT22;41082;52.822;6.666;2022-08-25T00:50:58;21.00;99.90
55211;DHT22;41082;52.822;6.666;2022-08-25T00:53:24;21.00;99.90
55211;DHT22;41082;52.822;6.666;2022-08-25T00:55:50;21.00;99.90
55211;DHT22;41082;52.822;6.666;2022-08-25T00:58:22;21.00;99.90
55211;DHT22;41082;52.822;6.666;2022-08-25T01:00:51;21.00;99.90
55211;DHT22;41082;52.822;6.666;2022-08-25T01:03:18;20.90;99.90
55211;DHT22;41082;52.822;6.666;2022-08-25T01:05:45;20.90;99.90
55211;DHT22;41082;52.822;6.666;2022-08-25T01:08:11;20.90;99.90
55211;DHT22;41082;52.822;6.666;2022-08-25T01:10:39;20.90;99.90
55211;DHT22;41082;52.822;6.666;2022-08-25T01:13:14;20.80;99.90
55211;DHT22;41082;52.822;6.666;2022-08-25T01:15:46;20.80;99.90
55211;DHT22;41082;52.822;6.666;2022-08-25T01:18:14;20.80;99.90
55211;DHT22;41082;52.822;6.666;2022-08-25T01:20:40;20.70;99.90
55211;DHT22;41082;52.822;6.666;2022-08-25T01:23:06;20.70;99.90
55211;DHT22;41082;52.822;6.666;2022-08-25T01:25:59;20.70;99.90
55211;DHT22;41082;52.822;6.666;2022-08-25T01:28:26;20.70;99.90
55211;DHT22;41082;52.822;6.666;2022-08-25T01:30:51;20.60;99.90
55211;DHT22;41082;52.822;6.666;2022-08-25T01:33:17;20.60;99.90
55211;DHT22;41082;52.822;6.666;2022-08-25T01:35:43;20.60;99.90
55211;DHT22;41082;52.822;6.666;2022-08-25T01:38:09;20.50;99.90
55211;DHT22;41082;52.822;6.666;2022-08-25T01:40:37;20.50;99.90
55211;DHT22;41082;52.822;6.666;2022-08-25T01:45:33;20.50;99.90
55211;DHT22;41082;52.822;6.666;2022-08-25T01:47:59;20.40;99.90
55211;DHT22;41082;52.822;6.666;2022-08-25T01:50:25;20.40;99.90
55211;DHT22;41082;52.822;6.666;2022-08-25T01:53:18;20.40;99.90
55211;DHT22;41082;52.822;6.666;2022-08-25T01:55:46;20.40;99.90
55211;DHT22;41082;52.822;6.666;2022-08-25T01:58:26;20.40;99.90
55211;DHT22;41082;52.822;6.666;2022-08-25T02:00:54;20.30;99.90
55211;DHT22;41082;52.822;6.666;2022-08-25T02:03:22;20.30;99.90
55211;DHT22;41082;52.822;6.666;2022-08-25T02:05:48;20.30;99.90
55211;DHT22;41082;52.822;6.666;2022-08-25T02:08:14;20.30;99.90
55211;DHT22;41082;52.822;6.666;2022-08-25T02:10:40;20.20;99.90
55211;DHT22;41082;52.822;6.666;2022-08-25T02:13:06;20.20;99.90
55211;DHT22;41082;52.822;6.666;2022-08-25T02:15:32;20.20;99.90
55211;DHT22;41082;52.822;6.666;2022-08-25T02:17:58;20.10;99.90
55211;DHT22;41082;52.822;6.666;2022-08-25T02:20:24;20.10;99.90
55211;DHT22;41082;52.822;6.666;2022-08-25T02:22:51;20.10;99.90
55211;DHT22;41082;52.822;6.666;2022-08-25T02:25:18;20.10;99.90
55211;DHT22;41082;52.822;6.666;2022-08-25T02:27:44;20.00;99.90
55211;DHT22;41082;52.822;6.666;2022-08-25T02:30:14;20.00;99.90
55211;DHT22;41082;52.822;6.666;2022-08-25T02:32:40;20.00;99.90
55211;DHT22;41082;52.822;6.666;2022-08-25T02:35:07;19.90;99.90
55211;DHT22;41082;52.822;6.666;2022-08-25T02:37:34;19.90;99.90
55211;DHT22;41082;52.822;6.666;2022-08-25T02:39:59;20.00;99.90
55211;DHT22;41082;52.822;6.666;2022-08-25T02:42:26;19.90;99.90
55211;DHT22;41082;52.822;6.666;2022-08-25T02:44:52;19.90;99.90
55211;DHT22;41082;52.822;6.666;2022-08-25T02:47:19;19.90;99.90
55211;DHT22;41082;52.822;6.666;2022-08-25T02:49:44;19.90;99.90
55211;DHT22;41082;52.822;6.666;2022-08-25T02:52:10;19.90;99.90
55211;DHT22;41082;52.822;6.666;2022-08-25T02:54:36;19.90;99.90
55211;DHT22;41082;52.822;6.666;2022-08-25T02:57:02;19.80;99.90
55211;DHT22;41082;52.822;6.666;2022-08-25T02:59:28;19.80;99.90
55211;DHT22;41082;52.822;6.666;2022-08-25T03:01:53;19.80;99.90
55211;DHT22;41082;52.822;6.666;2022-08-25T03:04:19;19.70;99.90
55211;DHT22;41082;52.822;6.666;2022-08-25T03:06:45;19.80;99.90
55211;DHT22;41082;52.822;6.666;2022-08-25T03:09:12;19.70;99.90
55211;DHT22;41082;52.822;6.666;2022-08-25T03:11:38;19.70;99.90
55211;DHT22;41082;52.822;6.666;2022-08-25T03:14:05;19.70;99.90
55211;DHT22;41082;52.822;6.666;2022-08-25T03:16:31;19.70;99.90
55211;DHT22;41082;52.822;6.666;2022-08-25T03:18:58;19.60;99.90
55211;DHT22;41082;52.822;6.666;2022-08-25T03:21:24;19.60;99.90
55211;DHT22;41082;52.822;6.666;2022-08-25T03:23:50;19.60;99.90
55211;DHT22;41082;52.822;6.666;2022-08-25T03:26:16;19.60;99.90
55211;DHT22;41082;52.822;6.666;2022-08-25T03:29:01;19.60;99.90
55211;DHT22;41082;52.822;6.666;2022-08-25T03:31:30;19.60;99.90
55211;DHT22;41082;52.822;6.666;2022-08-25T03:33:57;19.50;99.90
55211;DHT22;41082;52.822;6.666;2022-08-25T03:36:23;19.50;99.90
55211;DHT22;41082;52.822;6.666;2022-08-25T03:38:49;19.50;99.90
55211;DHT22;41082;52.822;6.666;2022-08-25T03:41:18;19.50;99.90
55211;DHT22;41082;52.822;6.666;2022-08-25T03:43:45;19.50;99.90
55211;DHT22;41082;52.822;6.666;2022-08-25T03:46:23;19.50;99.90
55211;DHT22;41082;52.822;6.666;2022-08-25T03:48:50;19.50;99.90
55211;DHT22;41082;52.822;6.666;2022-08-25T03:51:25;19.40;99.90
55211;DHT22;41082;52.822;6.666;2022-08-25T03:53:52;19.50;99.90
55211;DHT22;41082;52.822;6.666;2022-08-25T03:56:18;19.40;99.90
55211;DHT22;41082;52.822;6.666;2022-08-25T03:58:44;19.40;99.90
55211;DHT22;41082;52.822;6.666;2022-08-25T04:01:09;19.40;99.90
55211;DHT22;41082;52.822;6.666;2022-08-25T04:03:35;19.40;99.90
55211;DHT22;41082;52.822;6.666;2022-08-25T04:06:02;19.40;99.90
55211;DHT22;41082;52.822;6.666;2022-08-25T04:08:27;19.30;99.90
55211;DHT22;41082;52.822;6.666;2022-08-25T04:10:53;19.40;99.90
55211;DHT22;41082;52.822;6.666;2022-08-25T04:13:19;19.40;99.90
55211;DHT22;41082;52.822;6.666;2022-08-25T04:15:45;19.40;99.90
55211;DHT22;41082;52.822;6.666;2022-08-25T04:18:11;19.30;99.90
55211;DHT22;41082;52.822;6.666;2022-08-25T04:20:38;19.30;99.90
55211;DHT22;41082;52.822;6.666;2022-08-25T04:23:04;19.30;99.90
55211;DHT22;41082;52.822;6.666;2022-08-25T04:25:29;19.30;99.90
55211;DHT22;41082;52.822;6.666;2022-08-25T04:27:55;19.30;99.90
55211;DHT22;41082;52.822;6.666;2022-08-25T04:30:22;19.30;99.90
55211;DHT22;41082;52.822;6.666;2022-08-25T04:32:48;19.30;99.90
55211;DHT22;41082;52.822;6.666;2022-08-25T04:35:14;19.20;99.90
55211;DHT22;41082;52.822;6.666;2022-08-25T04:37:40;19.20;99.90
55211;DHT22;41082;52.822;6.666;2022-08-25T04:40:07;19.20;99.90
55211;DHT22;41082;52.822;6.666;2022-08-25T04:42:33;19.20;99.90
55211;DHT22;41082;52.822;6.666;2022-08-25T04:44:59;19.20;99.90
55211;DHT22;41082;52.822;6.666;2022-08-25T04:47:27;19.20;99.90
55211;DHT22;41082;52.822;6.666;2022-08-25T04:49:53;19.20;99.90
55211;DHT22;41082;52.822;6.666;2022-08-25T04:52:19;19.20;99.90
55211;DHT22;41082;52.822;6.666;2022-08-25T04:54:45;19.10;99.90
55211;DHT22;41082;52.822;6.666;2022-08-25T04:57:11;19.10;99.90
55211;DHT22;41082;52.822;6.666;2022-08-25T04:59:36;19.10;99.90
55211;DHT22;41082;52.822;6.666;2022-08-25T05:02:02;19.10;99.90
55211;DHT22;41082;52.822;6.666;2022-08-25T05:04:30;19.10;99.90
55211;DHT22;41082;52.822;6.666;2022-08-25T05:06:56;19.10;99.90
55211;DHT22;41082;52.822;6.666;2022-08-25T05:09:23;19.10;99.90
55211;DHT22;41082;52.822;6.666;2022-08-25T05:11:48;19.10;99.90
55211;DHT22;41082;52.822;6.666;2022-08-25T05:14:14;19.10;99.90
55211;DHT22;41082;52.822;6.666;2022-08-25T05:16:42;19.10;99.90
55211;DHT22;41082;52.822;6.666;2022-08-25T05:19:08;19.10;99.90
55211;DHT22;41082;52.822;6.666;2022-08-25T05:21:34;19.10;99.90
55211;DHT22;41082;52.822;6.666;2022-08-25T05:24:00;19.10;99.90
55211;DHT22;41082;52.822;6.666;2022-08-25T05:26:28;19.10;99.90
55211;DHT22;41082;52.822;6.666;2022-08-25T05:28:55;19.10;99.90
55211;DHT22;41082;52.822;6.666;2022-08-25T05:31:23;19.10;99.90
55211;DHT22;41082;52.822;6.666;2022-08-25T05:33:49;19.20;99.90
55211;DHT22;41082;52.822;6.666;2022-08-25T05:36:16;19.20;99.90
55211;DHT22;41082;52.822;6.666;2022-08-25T05:38:42;19.20;99.90
55211;DHT22;41082;52.822;6.666;2022-08-25T05:41:11;19.10;99.90
55211;DHT22;41082;52.822;6.666;2022-08-25T05:43:39;19.20;99.90
55211;DHT22;41082;52.822;6.666;2022-08-25T05:46:06;19.20;99.90
55211;DHT22;41082;52.822;6.666;2022-08-25T05:48:33;19.30;99.90
55211;DHT22;41082;52.822;6.666;2022-08-25T05:51:00;19.30;99.90
55211;DHT22;41082;52.822;6.666;2022-08-25T05:53:28;19.30;99.90
55211;DHT22;41082;52.822;6.666;2022-08-25T05:55:55;19.30;99.90
55211;DHT22;41082;52.822;6.666;2022-08-25T05:58:22;19.40;99.90
55211;DHT22;41082;52.822;6.666;2022-08-25T06:00:49;19.50;99.90
55211;DHT22;41082;52.822;6.666;2022-08-25T06:03:15;19.60;99.90
55211;DHT22;41082;52.822;6.666;2022-08-25T06:05:41;19.60;99.90
55211;DHT22;41082;52.822;6.666;2022-08-25T06:08:06;19.80;99.90
55211;DHT22;41082;52.822;6.666;2022-08-25T06:10:33;19.90;99.90
55211;DHT22;41082;52.822;6.666;2022-08-25T06:12:59;20.00;99.90
55211;DHT22;41082;52.822;6.666;2022-08-25T06:15:25;20.20;99.90
55211;DHT22;41082;52.822;6.666;2022-08-25T06:17:51;20.30;99.90
55211;DHT22;41082;52.822;6.666;2022-08-25T06:20:20;20.40;99.90
55211;DHT22;41082;52.822;6.666;2022-08-25T06:22:46;20.60;99.90
55211;DHT22;41082;52.822;6.666;2022-08-25T06:25:14;20.70;99.90
55211;DHT22;41082;52.822;6.666;2022-08-25T06:27:40;20.80;99.90
55211;DHT22;41082;52.822;6.666;2022-08-25T06:30:08;20.90;99.90
55211;DHT22;41082;52.822;6.666;2022-08-25T06:32:37;21.00;99.90
55211;DHT22;41082;52.822;6.666;2022-08-25T06:35:11;21.10;99.90
55211;DHT22;41082;52.822;6.666;2022-08-25T06:37:38;21.10;99.90
55211;DHT22;41082;52.822;6.666;2022-08-25T06:40:07;21.20;99.90
55211;DHT22;41082;52.822;6.666;2022-08-25T06:42:33;21.30;99.90
55211;DHT22;41082;52.822;6.666;2022-08-25T06:44:59;21.30;99.90
55211;DHT22;41082;52.822;6.666;2022-08-25T06:47:26;21.40;99.90
55211;DHT22;41082;52.822;6.666;2022-08-25T06:49:52;21.40;99.90
55211;DHT22;41082;52.822;6.666;2022-08-25T06:52:18;21.40;99.90
55211;DHT22;41082;52.822;6.666;2022-08-25T06:54:44;21.50;99.90
55211;DHT22;41082;52.822;6.666;2022-08-25T06:57:09;21.60;99.90
55211;DHT22;41082;52.822;6.666;2022-08-25T06:59:36;21.60;99.90
55211;DHT22;41082;52.822;6.666;2022-08-25T07:02:02;21.70;99.90
55211;DHT22;41082;52.822;6.666;2022-08-25T07:04:29;21.70;99.90
55211;DHT22;41082;52.822;6.666;2022-08-25T07:06:54;21.80;99.90
55211;DHT22;41082;52.822;6.666;2022-08-25T07:09:20;21.80;99.90
55211;DHT22;41082;52.822;6.666;2022-08-25T07:11:46;21.90;99.90
55211;DHT22;41082;52.822;6.666;2022-08-25T07:14:13;21.90;99.90
55211;DHT22;41082;52.822;6.666;2022-08-25T07:16:40;22.00;99.90
55211;DHT22;41082;52.822;6.666;2022-08-25T07:19:07;22.10;99.90
55211;DHT22;41082;52.822;6.666;2022-08-25T07:21:34;22.10;99.90
55211;DHT22;41082;52.822;6.666;2022-08-25T07:24:02;22.20;99.90
55211;DHT22;41082;52.822;6.666;2022-08-25T07:26:30;22.30;99.90
55211;DHT22;41082;52.822;6.666;2022-08-25T07:29:00;22.30;99.90
55211;DHT22;41082;52.822;6.666;2022-08-25T07:31:25;22.40;99.80
55211;DHT22;41082;52.822;6.666;2022-08-25T07:33:51;22.40;99.70
55211;DHT22;41082;52.822;6.666;2022-08-25T07:36:35;22.50;99.60
55211;DHT22;41082;52.822;6.666;2022-08-25T07:39:01;22.60;99.40
55211;DHT22;41082;52.822;6.666;2022-08-25T07:41:31;22.60;99.60
55211;DHT22;41082;52.822;6.666;2022-08-25T07:43:58;22.70;99.50
55211;DHT22;41082;52.822;6.666;2022-08-25T07:46:24;22.80;99.50
55211;DHT22;41082;52.822;6.666;2022-08-25T07:48:49;22.80;99.40
55211;DHT22;41082;52.822;6.666;2022-08-25T07:51:15;22.90;99.20
55211;DHT22;41082;52.822;6.666;2022-08-25T07:53:42;23.00;99.10
55211;DHT22;41082;52.822;6.666;2022-08-25T07:56:12;23.00;99.00
55211;DHT22;41082;52.822;6.666;2022-08-25T07:58:39;23.10;99.00
55211;DHT22;41082;52.822;6.666;2022-08-25T08:01:06;23.20;98.60
55211;DHT22;41082;52.822;6.666;2022-08-25T08:03:32;23.30;98.30
55211;DHT22;41082;52.822;6.666;2022-08-25T08:06:00;23.40;98.10
55211;DHT22;41082;52.822;6.666;2022-08-25T08:08:26;23.50;98.20
55211;DHT22;41082;52.822;6.666;2022-08-25T08:10:52;23.50;98.30
55211;DHT22;41082;52.822;6.666;2022-08-25T08:13:17;23.70;98.20
55211;DHT22;41082;52.822;6.666;2022-08-25T08:15:43;23.70;98.00
55211;DHT22;41082;52.822;6.666;2022-08-25T08:18:09;23.80;98.00
55211;DHT22;41082;52.822;6.666;2022-08-25T08:20:35;23.90;97.60
55211;DHT22;41082;52.822;6.666;2022-08-25T08:23:02;24.00;97.40
55211;DHT22;41082;52.822;6.666;2022-08-25T08:25:28;24.10;97.40
55211;DHT22;41082;52.822;6.666;2022-08-25T08:27:55;24.20;97.50
55211;DHT22;41082;52.822;6.666;2022-08-25T08:30:21;24.30;97.40
55211;DHT22;41082;52.822;6.666;2022-08-25T08:32:47;24.50;97.70
55211;DHT22;41082;52.822;6.666;2022-08-25T08:35:15;24.60;97.70
55211;DHT22;41082;52.822;6.666;2022-08-25T08:37:44;24.80;97.60
55211;DHT22;41082;52.822;6.666;2022-08-25T08:40:11;24.90;97.30
55211;DHT22;41082;52.822;6.666;2022-08-25T08:42:55;25.00;97.00
55211;DHT22;41082;52.822;6.666;2022-08-25T08:45:33;25.20;97.00
55211;DHT22;41082;52.822;6.666;2022-08-25T08:53:30;25.70;96.50
55211;DHT22;41082;52.822;6.666;2022-08-25T08:56:22;25.90;95.70
55211;DHT22;41082;52.822;6.666;2022-08-25T08:59:02;26.10;94.40
55211;DHT22;41082;52.822;6.666;2022-08-25T09:01:43;26.30;93.90
55211;DHT22;41082;52.822;6.666;2022-08-25T09:04:28;26.50;93.20
55211;DHT22;41082;52.822;6.666;2022-08-25T09:06:56;26.70;92.70
55211;DHT22;41082;52.822;6.666;2022-08-25T09:09:32;26.80;91.40
55211;DHT22;41082;52.822;6.666;2022-08-25T09:18:22;27.40;90.80
55211;DHT22;41082;52.822;6.666;2022-08-25T09:21:02;27.60;91.40
55211;DHT22;41082;52.822;6.666;2022-08-25T09:23:45;27.80;90.60
55211;DHT22;41082;52.822;6.666;2022-08-25T09:26:44;28.00;88.90
55211;DHT22;41082;52.822;6.666;2022-08-25T09:29:14;28.20;87.50
55211;DHT22;41082;52.822;6.666;2022-08-25T09:31:44;28.40;86.30
55211;DHT22;41082;52.822;6.666;2022-08-25T09:34:18;28.50;85.50
55211;DHT22;41082;52.822;6.666;2022-08-25T09:36:44;28.70;80.90
55211;DHT22;41082;52.822;6.666;2022-08-25T09:39:13;28.80;78.90
55211;DHT22;41082;52.822;6.666;2022-08-25T09:41:46;29.00;77.20
55211;DHT22;41082;52.822;6.666;2022-08-25T09:44:38;29.10;74.00
55211;DHT22;41082;52.822;6.666;2022-08-25T09:47:23;29.20;72.70
55211;DHT22;41082;52.822;6.666;2022-08-25T09:49:56;29.40;73.70
55211;DHT22;41082;52.822;6.666;2022-08-25T09:54:55;29.60;69.50
55211;DHT22;41082;52.822;6.666;2022-08-25T09:57:33;29.70;66.20
55211;DHT22;41082;52.822;6.666;2022-08-25T10:02:59;29.90;64.90
55211;DHT22;41082;52.822;6.666;2022-08-25T10:05:25;30.00;64.40
55211;DHT22;41082;52.822;6.666;2022-08-25T10:07:58;30.10;65.00
55211;DHT22;41082;52.822;6.666;2022-08-25T10:10:28;30.30;63.90
55211;DHT22;41082;52.822;6.666;2022-08-25T10:12:55;30.40;63.50
55211;DHT22;41082;52.822;6.666;2022-08-25T10:15:34;30.50;61.70
55211;DHT22;41082;52.822;6.666;2022-08-25T10:18:26;30.60;64.10
55211;DHT22;41082;52.822;6.666;2022-08-25T10:21:14;30.70;62.20
55211;DHT22;41082;52.822;6.666;2022-08-25T10:23:49;30.70;60.40
55211;DHT22;41082;52.822;6.666;2022-08-25T10:29:29;30.90;59.40
55211;DHT22;41082;52.822;6.666;2022-08-25T10:32:02;30.90;57.90
55211;DHT22;41082;52.822;6.666;2022-08-25T10:34:45;30.90;56.70
55211;DHT22;41082;52.822;6.666;2022-08-25T10:37:35;31.00;58.70
55211;DHT22;41082;52.822;6.666;2022-08-25T10:40:34;31.10;58.10
55211;DHT22;41082;52.822;6.666;2022-08-25T10:43:27;31.10;57.10
55211;DHT22;41082;52.822;6.666;2022-08-25T10:46:31;31.20;56.50
55211;DHT22;41082;52.822;6.666;2022-08-25T10:54:28;31.30;57.10
55211;DHT22;41082;52.822;6.666;2022-08-25T10:57:13;31.40;57.30
55211;DHT22;41082;52.822;6.666;2022-08-25T11:02:28;31.50;56.70
55211;DHT22;41082;52.822;6.666;2022-08-25T11:05:11;31.60;56.50
55211;DHT22;41082;52.822;6.666;2022-08-25T11:07:45;31.70;57.10
55211;DHT22;41082;52.822;6.666;2022-08-25T11:10:14;31.70;56.20
55211;DHT22;41082;52.822;6.666;2022-08-25T11:17:57;31.90;54.60
55211;DHT22;41082;52.822;6.666;2022-08-25T11:20:45;31.90;53.20
55211;DHT22;41082;52.822;6.666;2022-08-25T11:23:21;32.00;54.80
55211;DHT22;41082;52.822;6.666;2022-08-25T11:25:52;32.00;55.00
55211;DHT22;41082;52.822;6.666;2022-08-25T11:30:49;32.00;54.40
55211;DHT22;41082;52.822;6.666;2022-08-25T11:33:16;32.20;54.20
55211;DHT22;41082;52.822;6.666;2022-08-25T11:36:31;32.20;54.00
55211;DHT22;41082;52.822;6.666;2022-08-25T11:41:40;32.20;52.10
55211;DHT22;41082;52.822;6.666;2022-08-25T11:45:29;32.20;50.80
55211;DHT22;41082;52.822;6.666;2022-08-25T11:50:06;32.10;47.50
55211;DHT22;41082;52.822;6.666;2022-08-25T11:55:28;32.00;47.00
55211;DHT22;41082;52.822;6.666;2022-08-25T12:00:54;32.00;46.80
55211;DHT22;41082;52.822;6.666;2022-08-25T12:08:52;31.80;46.10
55211;DHT22;41082;52.822;6.666;2022-08-25T12:14:15;31.80;45.30
55211;DHT22;41082;52.822;6.666;2022-08-25T12:17:05;31.70;44.90
55211;DHT22;41082;52.822;6.666;2022-08-25T12:27:58;31.50;46.40
55211;DHT22;41082;52.822;6.666;2022-08-25T12:30:54;31.40;45.40
55211;DHT22;41082;52.822;6.666;2022-08-25T12:36:06;31.30;48.60
55211;DHT22;41082;52.822;6.666;2022-08-25T12:38:40;31.30;48.50
55211;DHT22;41082;52.822;6.666;2022-08-25T12:41:12;31.30;47.00
55211;DHT22;41082;52.822;6.666;2022-08-25T12:43:41;31.30;46.70
55211;DHT22;41082;52.822;6.666;2022-08-25T12:54:19;31.20;46.70
55211;DHT22;41082;52.822;6.666;2022-08-25T12:57:02;31.10;46.20
55211;DHT22;41082;52.822;6.666;2022-08-25T12:59:41;31.10;47.50
55211;DHT22;41082;52.822;6.666;2022-08-25T13:08:14;31.10;49.50
55211;DHT22;41082;52.822;6.666;2022-08-25T13:10:56;31.20;48.70
55211;DHT22;41082;52.822;6.666;2022-08-25T13:16:07;31.20;48.00
55211;DHT22;41082;52.822;6.666;2022-08-25T13:18:36;31.20;48.90
55211;DHT22;41082;52.822;6.666;2022-08-25T13:21:56;31.20;48.10
55211;DHT22;41082;52.822;6.666;2022-08-25T13:23:59;31.20;46.20
55211;DHT22;41082;52.822;6.666;2022-08-25T13:26:29;31.20;48.10
55211;DHT22;41082;52.822;6.666;2022-08-25T13:29:01;31.20;48.20
55211;DHT22;41082;52.822;6.666;2022-08-25T13:31:30;31.20;47.60
55211;DHT22;41082;52.822;6.666;2022-08-25T13:33:56;31.20;47.60
55211;DHT22;41082;52.822;6.666;2022-08-25T13:36:25;31.20;48.90
55211;DHT22;41082;52.822;6.666;2022-08-25T13:39:16;31.20;49.00
55211;DHT22;41082;52.822;6.666;2022-08-25T13:41:50;31.30;49.20
55211;DHT22;41082;52.822;6.666;2022-08-25T13:44:18;31.30;49.20
55211;DHT22;41082;52.822;6.666;2022-08-25T13:46:45;31.30;49.30
55211;DHT22;41082;52.822;6.666;2022-08-25T13:49:12;31.30;50.10
55211;DHT22;41082;52.822;6.666;2022-08-25T13:51:53;31.30;48.00
55211;DHT22;41082;52.822;6.666;2022-08-25T13:54:26;31.20;48.90
55211;DHT22;41082;52.822;6.666;2022-08-25T13:56:53;31.20;49.20
55211;DHT22;41082;52.822;6.666;2022-08-25T13:59:25;31.20;50.20
55211;DHT22;41082;52.822;6.666;2022-08-25T14:01:53;31.20;49.10
55211;DHT22;41082;52.822;6.666;2022-08-25T14:09:54;31.20;51.10
55211;DHT22;41082;52.822;6.666;2022-08-25T14:15:08;31.20;49.90
55211;DHT22;41082;52.822;6.666;2022-08-25T14:17:35;31.20;50.00
55211;DHT22;41082;52.822;6.666;2022-08-25T14:20:04;31.20;49.30
55211;DHT22;41082;52.822;6.666;2022-08-25T14:22:30;31.30;48.50
55211;DHT22;41082;52.822;6.666;2022-08-25T14:24:56;31.30;47.60
55211;DHT22;41082;52.822;6.666;2022-08-25T14:27:22;31.20;47.20
55211;DHT22;41082;52.822;6.666;2022-08-25T14:29:48;31.20;46.90
55211;DHT22;41082;52.822;6.666;2022-08-25T14:32:15;31.20;47.20
55211;DHT22;41082;52.822;6.666;2022-08-25T14:34:41;31.20;47.40
55211;DHT22;41082;52.822;6.666;2022-08-25T14:37:17;31.20;46.70
55211;DHT22;41082;52.822;6.666;2022-08-25T14:39:44;31.20;48.40
55211;DHT22;41082;52.822;6.666;2022-08-25T14:42:10;31.10;47.90
55211;DHT22;41082;52.822;6.666;2022-08-25T14:44:37;31.10;48.20
55211;DHT22;41082;52.822;6.666;2022-08-25T14:47:03;31.10;47.90
55211;DHT22;41082;52.822;6.666;2022-08-25T14:49:35;31.10;48.10
55211;DHT22;41082;52.822;6.666;2022-08-25T14:52:19;31.10;48.50
55211;DHT22;41082;52.822;6.666;2022-08-25T14:54:46;31.20;48.20
55211;DHT22;41082;52.822;6.666;2022-08-25T14:57:12;31.20;47.80
55211;DHT22;41082;52.822;6.666;2022-08-25T14:59:38;31.20;47.10
55211;DHT22;41082;52.822;6.666;2022-08-25T15:02:05;31.20;47.90
55211;DHT22;41082;52.822;6.666;2022-08-25T15:04:34;31.20;47.00
55211;DHT22;41082;52.822;6.666;2022-08-25T15:07:00;31.10;45.80
55211;DHT22;41082;52.822;6.666;2022-08-25T15:09:26;31.10;45.00
55211;DHT22;41082;52.822;6.666;2022-08-25T15:11:53;31.00;44.60
55211;DHT22;41082;52.822;6.666;2022-08-25T15:14:21;31.00;44.30
55211;DHT22;41082;52.822;6.666;2022-08-25T15:16:51;31.00;44.60
55211;DHT22;41082;52.822;6.666;2022-08-25T15:19:21;31.00;45.90
55211;DHT22;41082;52.822;6.666;2022-08-25T15:21:48;31.00;46.50
55211;DHT22;41082;52.822;6.666;2022-08-25T15:24:15;30.90;47.40
55211;DHT22;41082;52.822;6.666;2022-08-25T15:29:10;30.90;46.90
55211;DHT22;41082;52.822;6.666;2022-08-25T15:31:36;30.90;46.80
55211;DHT22;41082;52.822;6.666;2022-08-25T15:34:03;30.90;47.60
55211;DHT22;41082;52.822;6.666;2022-08-25T15:36:28;30.80;47.80
55211;DHT22;41082;52.822;6.666;2022-08-25T15:38:54;30.80;48.10
55211;DHT22;41082;52.822;6.666;2022-08-25T15:41:20;30.80;48.90
55211;DHT22;41082;52.822;6.666;2022-08-25T15:43:46;30.80;48.50
55211;DHT22;41082;52.822;6.666;2022-08-25T15:46:15;30.80;48.30
55211;DHT22;41082;52.822;6.666;2022-08-25T15:48:41;30.70;48.20
55211;DHT22;41082;52.822;6.666;2022-08-25T15:51:07;30.70;48.50
55211;DHT22;41082;52.822;6.666;2022-08-25T15:53:33;30.60;49.20
55211;DHT22;41082;52.822;6.666;2022-08-25T15:55:59;30.60;49.50
55211;DHT22;41082;52.822;6.666;2022-08-25T15:58:26;30.50;49.10
55211;DHT22;41082;52.822;6.666;2022-08-25T16:00:51;30.50;49.00
55211;DHT22;41082;52.822;6.666;2022-08-25T16:03:17;30.40;48.90
55211;DHT22;41082;52.822;6.666;2022-08-25T16:05:43;30.40;49.70
55211;DHT22;41082;52.822;6.666;2022-08-25T16:08:10;30.40;50.50
55211;DHT22;41082;52.822;6.666;2022-08-25T16:10:40;30.30;50.70
55211;DHT22;41082;52.822;6.666;2022-08-25T16:13:08;30.20;50.40
55211;DHT22;41082;52.822;6.666;2022-08-25T16:15:35;30.20;50.80
55211;DHT22;41082;52.822;6.666;2022-08-25T16:18:01;30.10;50.70
55211;DHT22;41082;52.822;6.666;2022-08-25T16:20:29;30.00;50.10
55211;DHT22;41082;52.822;6.666;2022-08-25T16:22:55;30.00;49.90
55211;DHT22;41082;52.822;6.666;2022-08-25T16:25:22;29.80;50.00
55211;DHT22;41082;52.822;6.666;2022-08-25T16:27:48;29.80;50.40
55211;DHT22;41082;52.822;6.666;2022-08-25T16:30:14;29.80;50.20
55211;DHT22;41082;52.822;6.666;2022-08-25T16:32:39;29.70;50.40
55211;DHT22;41082;52.822;6.666;2022-08-25T16:35:06;29.60;51.30
55211;DHT22;41082;52.822;6.666;2022-08-25T16:37:33;29.60;51.90
55211;DHT22;41082;52.822;6.666;2022-08-25T16:39:59;29.60;52.20
55211;DHT22;41082;52.822;6.666;2022-08-25T16:42:25;29.50;52.20
55211;DHT22;41082;52.822;6.666;2022-08-25T16:44:50;29.40;52.50
55211;DHT22;41082;52.822;6.666;2022-08-25T16:47:16;29.40;52.70
55211;DHT22;41082;52.822;6.666;2022-08-25T16:49:42;29.30;52.90
55211;DHT22;41082;52.822;6.666;2022-08-25T16:52:07;29.30;53.20
55211;DHT22;41082;52.822;6.666;2022-08-25T16:54:52;29.20;53.40
55211;DHT22;41082;52.822;6.666;2022-08-25T16:57:37;29.20;53.60
55211;DHT22;41082;52.822;6.666;2022-08-25T17:00:05;29.10;53.20
55211;DHT22;41082;52.822;6.666;2022-08-25T17:02:31;29.10;53.20
55211;DHT22;41082;52.822;6.666;2022-08-25T17:04:57;29.00;53.40
55211;DHT22;41082;52.822;6.666;2022-08-25T17:07:22;29.00;53.60
55211;DHT22;41082;52.822;6.666;2022-08-25T17:09:48;28.90;53.90
55211;DHT22;41082;52.822;6.666;2022-08-25T17:12:13;28.90;54.20
55211;DHT22;41082;52.822;6.666;2022-08-25T17:14:39;28.80;54.60
55211;DHT22;41082;52.822;6.666;2022-08-25T17:17:05;28.80;55.20
55211;DHT22;41082;52.822;6.666;2022-08-25T17:19:31;28.70;55.40
55211;DHT22;41082;52.822;6.666;2022-08-25T17:21:57;28.70;55.50
55211;DHT22;41082;52.822;6.666;2022-08-25T17:24:23;28.60;55.60